Latest Coastal Weather Observations for Walpole North

IDW60701

Issued at 12:22 am WST Friday 29 July 2016 (issued every 10 minutes, with the page automatically refreshed every 10 minutes)

About coastal observations | Map of coastal stations | Coastal observations for WA | Marine services | Other Formats
Station Details ID: 009998 Name: NORTH WALPOLE Lat: -34.95 Lon: 116.72 Height: 73.0 m
Data from the previous 72 hours. | See also: Recent months at Walpole North
Date/Time
WST
Temp
°C
Wind Pressure Rain since
9am
mm
Weather Cloud Vis
km
Sea
Height
m
Swell
Dir  Spd
kts
Gust
kts
hPa Trend Height
m
Period
s
Dir
29/12:00am 13.0 NNE 8 12 1018.6 - 0.6 - - - - - - -
 
Date/Time
WST
Temp
°C
Wind Pressure Rain since
9am
mm
Weather Cloud Vis
km
Sea
Height
m
Swell
Dir  Spd
kts
Gust
kts
hPa Trend Height
m
Period
s
Dir
28/11:30pm 12.6 NNE 6 10 1019.0 - 0.6 - - - - - - -
28/11:00pm 12.8 NNE 6 11 1019.3 - 0.6 - - - - - - -
28/10:30pm 11.9 NNE 3 6 1019.7 - 0.6 - - - - - - -
28/10:00pm 12.0 CALM 0 0 1020.2 - 0.6 - - - - - - -
28/09:30pm 12.2 NNE 2 6 1020.3 - 0.6 - - - - - - -
28/09:00pm 12.4 CALM 0 0 1020.3 - 0.6 - - - - - - -
28/08:30pm 12.1 CALM 0 0 1020.5 - 0.6 - - - - - - -
28/08:00pm 12.3 CALM 0 0 1020.5 - 0.6 - - - - - - -
28/07:30pm 12.2 CALM 0 0 1020.4 - 0.6 - - - - - - -
28/07:00pm 12.0 CALM 0 0 1020.6 - 0.6 - - - - - - -
28/06:30pm 12.5 CALM 0 0 1020.0 - 0.6 - - - - - - -
28/06:00pm 13.2 CALM 0 0 1020.1 - 0.6 - - - - - - -
28/05:30pm 13.6 CALM 0 0 1020.1 - 0.6 - - - - - - -
28/05:00pm 14.0 CALM 0 0 1020.1 - 0.6 - - - - - - -
28/04:30pm 14.0 CALM 0 0 1019.9 - 0.6 - - - - - - -
28/04:00pm 14.1 CALM 0 0 1019.8 - 0.6 - - - - - - -
28/03:30pm 14.0 CALM 0 4 1019.7 - 0.6 - - - - - - -
28/03:00pm 13.9 SSW 2 5 1019.6 - 0.6 - - - - - - -
28/02:30pm 14.0 SW 5 8 1019.6 - 0.6 - - - - - - -
28/02:00pm 14.3 SW 5 9 1019.6 - 0.6 - - - - - - -
28/01:30pm 15.1 SSW 5 7 1019.7 - 0.2 - - - - - - -
28/01:00pm 15.5 WSW 6 9 1020.0 - 0.2 - - - - - - -
28/12:30pm 15.6 W 7 11 1020.1 - 0.2 - - - - - - -
28/12:00pm 16.0 W 7 10 1020.5 - 0.2 Rain - - - - - -
28/11:30am 15.6 WNW 6 8 1021.0 - 0.0 - - - - - - -
28/11:00am 15.2 NW 6 9 1021.1 - 0.0 - - - - - - -
28/10:30am 15.0 NW 7 11 1021.4 - 0.0 - - - - - - -
28/10:00am 15.6 WNW 8 11 1021.3 - 0.0 - - - - - - -
28/09:30am 14.3 WNW 4 8 1021.5 - 0.0 - - - - - - -
28/09:00am 12.8 NW 2 7 1021.5 - 0.0 - - - - - - -
28/08:30am 12.1 WNW 2 7 1021.5 - 0.0 - - - - - - -
28/08:00am 12.4 NW 2 8 1021.1 - 0.0 - - - - - - -
28/07:30am 12.1 NW 3 6 1021.0 - 0.0 - - - - - - -
28/07:00am 11.9 CALM 0 5 1020.8 - 0.0 - - - - - - -
28/06:30am 11.8 CALM 0 0 1020.5 - 0.0 - - - - - - -
28/06:00am 12.2 NNW 2 5 1020.7 - 0.0 - - - - - - -
28/05:30am 12.8 N 4 8 1020.6 - 0.0 - - - - - - -
28/05:00am 11.7 CALM 0 0 1020.6 - 0.0 - - - - - - -
28/04:30am 11.3 CALM 0 0 1020.8 - 0.0 - - - - - - -
28/04:00am 11.4 CALM 0 0 1020.6 - 0.0 - - - - - - -
28/03:30am 11.5 CALM 0 0 1020.8 - 0.0 - - - - - - -
28/03:00am 11.4 CALM 0 0 1021.3 - 0.0 - - - - - - -
28/02:30am 11.6 CALM 0 0 1021.5 - 0.0 - - - - - - -
28/02:00am 12.1 CALM 0 0 1021.5 - 0.0 - - - - - - -
28/01:30am 12.4 NNE 6 10 1021.5 - 0.0 - - - - - - -
28/01:00am 12.3 NE 6 8 1021.4 - 0.0 - - - - - - -
28/12:30am 12.3 NNE 5 8 1021.7 - 0.0 - - - - - - -
28/12:00am 12.1 NNE 4 8 1022.2 - 0.0 - - - - - - -
 
Date/Time
WST
Temp
°C
Wind Pressure Rain since
9am
mm
Weather Cloud Vis
km
Sea
Height
m
Swell
Dir  Spd
kts
Gust
kts
hPa Trend Height
m
Period
s
Dir
27/11:30pm 11.6 NE 4 8 1022.1 - 0.0 - - - - - - -
27/11:00pm 11.8 NNE 3 7 1022.7 - 0.0 - - - - - - -
27/10:30pm 12.0 NNE 5 8 1023.1 - 0.0 - - - - - - -
27/10:00pm 11.7 NE 1 7 1023.4 - 0.0 - - - - - - -
27/09:30pm 11.8 CALM 0 0 1024.1 - 0.0 - - - - - - -
27/09:00pm 11.5 CALM 0 0 1024.0 - 0.0 - - - - - - -
27/08:30pm 12.0 CALM 0 0 1023.6 - 0.0 - - - - - - -
27/08:00pm 11.6 CALM 0 0 1024.0 - 0.0 - - - - - - -
27/07:30pm 11.9 CALM 0 0 1024.1 - 0.0 - - - - - - -
27/07:00pm 12.1 CALM 0 0 1024.2 - 0.0 - - - - - - -
27/06:30pm 12.4 CALM 0 0 1023.8 - 0.0 - - - - - - -
27/06:00pm 12.6 CALM 0 0 1023.7 - 0.0 - - - - - - -
27/05:30pm 13.1 CALM 0 0 1023.4 - 0.0 - - - - - - -
27/05:00pm 13.5 CALM 0 0 1023.5 - 0.0 - - - - - - -
27/04:30pm 14.5 CALM 0 0 1023.4 - 0.0 - - - - - - -
27/04:00pm 15.0 CALM 0 0 1023.2 - 0.0 - - - - - - -
27/03:30pm 15.0 CALM 0 0 1023.5 - 0.0 - - - - - - -
27/03:00pm 15.2 CALM 0 0 1023.2 - 0.0 - - - - - - -
27/02:30pm 15.2 NNW 3 7 1023.2 - 0.0 - - - - - - -
27/02:00pm 14.9 NNW 6 10 1023.5 - 0.0 - - - - - - -
27/01:30pm 14.9 NNW 7 11 1023.9 - 0.0 - - - - - - -
27/01:00pm 15.1 NNW 6 10 1024.3 - 0.0 - - - - - - -
27/12:30pm 15.1 NNW 8 11 1024.6 - 0.0 - - - - - - -
27/12:00pm 15.1 NNW 6 11 1025.4 - 0.0 - - - - - - -
27/11:30am 14.9 NNW 8 12 1025.8 - 0.0 - - - - - - -
27/11:00am 15.0 NW 8 15 1026.0 - 0.0 - - - - - - -
27/10:30am 15.2 NW 9 13 1026.2 - 0.0 - - - - - - -
27/10:00am 14.4 NNW 8 14 1026.1 - 0.0 - - - - - - -
27/09:30am 14.3 NNW 6 11 1026.3 - 0.0 - - - - - - -
27/09:00am 13.6 N 1 5 1026.6 - 0.0 - - - - - - -
27/08:30am 13.0 N 4 6 1026.5 - 0.0 - - - - - - -
27/08:00am 12.3 NNW 4 6 1026.5 - 0.0 - - - - - - -
27/07:30am 12.3 N 7 10 1026.6 - 0.0 - - - - - - -
27/07:00am 12.2 NNW 8 11 1026.7 - 0.0 - - - - - - -
27/06:30am 11.9 NNW 6 8 1026.4 - 0.0 - - - - - - -
27/06:00am 11.5 CALM 0 3 1026.4 - 0.0 - - - - - - -
27/05:30am 11.9 NNW 7 9 1026.1 - 0.0 - - - - - - -
27/05:00am 11.4 NNW 5 8 1026.1 - 0.0 - - - - - - -
27/04:30am 11.2 NW 4 5 1026.1 - 0.0 - - - - - - -
27/04:00am 11.2 CALM 0 0 1026.2 - 0.0 - - - - - - -
27/03:30am 11.2 CALM 0 0 1026.1 - 0.0 - - - - - - -
27/03:00am 11.4 CALM 0 0 1026.1 - 0.0 - - - - - - -
27/02:30am 11.4 CALM 0 0 1026.0 - 0.0 - - - - - - -
27/02:00am 11.5 CALM 0 0 1025.9 - 0.0 - - - - - - -
27/01:30am 11.8 CALM 0 0 1026.1 - 0.0 - - - - - - -
27/01:00am 11.8 NNW 3 6 1026.3 - 0.0 - - - - - - -
27/12:30am 11.9 NW 3 5 1026.7 - 0.0 - - - - - - -
27/12:00am 12.0 NW 3 7 1026.9 - 0.0 - - - - - - -
 
Date/Time
WST
Temp
°C
Wind Pressure Rain since
9am
mm
Weather Cloud Vis
km
Sea
Height
m
Swell
Dir  Spd
kts
Gust
kts
hPa Trend Height
m
Period
s
Dir
26/11:30pm 12.1 NNW 3 6 1027.0 - 0.0 - - - - - - -
26/11:00pm 12.1 NW 4 6 1027.2 - 0.0 - - - - - - -
26/10:30pm 12.1 NW 5 7 1027.2 - 0.0 - - - - - - -
26/10:00pm 12.2 NW 7 10 1027.3 - 0.0 - - - - - - -
26/09:30pm 12.1 NW 5 7 1027.4 - 0.0 - - - - - - -
26/09:00pm 12.1 NW 1 4 1027.3 - 0.0 - - - - - - -
26/08:30pm 12.1 WNW 4 5 1027.3 - 0.0 - - - - - - -
26/08:00pm 12.2 NW 5 7 1027.2 - 0.0 - - - - - - -
26/07:30pm 12.1 NNW 4 6 1027.0 - 0.0 - - - - - - -
26/07:00pm 12.2 WNW 4 6 1026.9 - 0.0 - - - - - - -
26/06:30pm 12.2 WNW 6 8 1026.7 - 0.0 - - - - - - -
26/06:00pm 12.4 WNW 3 5 1026.4 - 0.0 - - - - - - -
26/05:30pm 12.6 WNW 7 9 1026.2 - 0.0 - - - - - - -
26/05:00pm 13.5 WNW 6 11 1026.1 - 0.0 - - - - - - -
26/04:30pm 14.4 W 5 8 1026.1 - 0.0 - - - - - - -
26/04:00pm 14.1 W 7 9 1026.0 - 0.0 - - - - - - -
26/03:30pm 14.0 WNW 7 12 1026.0 - 0.0 - - - - - - -
26/03:00pm 14.9 WSW 7 12 1025.7 - 0.0 - - - - - - -
26/02:30pm 15.9 W 6 10 1025.6 - 0.0 - - - - - - -
26/02:00pm 14.4 WSW 9 15 1025.6 - 0.0 - - - - - - -
26/01:30pm 14.9 WSW 9 15 1025.7 - 0.0 - - - - - - -
26/01:00pm 14.9 WSW 9 14 1025.7 - 0.0 - - - - - - -
26/12:30pm 15.1 WSW 10 16 1025.9 - 0.0 - - - - - - -
26/12:00pm 15.2 WSW 10 17 1026.2 - 0.0 - - - - - - -
26/11:30am 14.9 WSW 11 16 1026.6 - 0.0 - - - - - - -
26/11:00am 15.1 WSW 10 16 1026.7 - 0.0 - - - - - - -
26/10:30am 14.9 W 8 14 1026.9 - 0.0 - - - - - - -
26/10:00am 14.5 SW 8 16 1026.9 - 0.0 - - - - - - -
26/09:30am 14.2 WSW 6 11 1026.6 - 0.0 - - - - - - -
26/09:00am 13.8 WSW 7 9 1026.5 - 0.4 - - - - - - -
26/08:30am 12.9 W 8 13 1026.2 - 0.4 - - - - - - -
26/08:00am 12.7 W 5 7 1026.0 - 0.4 - - - - - - -
26/07:30am 12.4 W 6 8 1025.7 - 0.4 - - - - - - -
26/07:00am 12.0 W 5 9 1025.5 - 0.4 - - - - - - -
26/06:30am 12.1 W 5 8 1025.2 - 0.4 - - - - - - -
26/06:00am 12.0 W 7 11 1025.0 - 0.4 - - - - - - -
26/05:30am 11.7 WSW 6 9 1025.0 - 0.4 - - - - - - -
26/05:00am 12.0 W 6 10 1024.9 - 0.4 - - - - - - -
26/04:30am 12.2 W 6 9 1024.9 - 0.4 - - - - - - -
26/04:00am 12.4 WSW 9 15 1024.9 - 0.4 - - - - - - -
26/03:30am 12.3 WSW 7 11 1024.7 - 0.4 - - - - - - -
26/03:00am 12.1 W 6 11 1024.9 - 0.4 - - - - - - -
26/02:30am 12.1 WSW 8 12 1024.7 - 0.4 - - - - - - -
26/02:00am 11.7 WSW 7 12 1024.7 - 0.4 - - - - - - -
26/01:30am 11.7 W 6 9 1024.6 - 0.4 - - - - - - -
26/01:00am 12.0 W 8 12 1024.7 - 0.4 - - - - - - -
26/12:30am 11.5 W 7 11 1024.7 - 0.2 - - - - - - -

Other Formats:

Comma delimited format used in spreadsheet applications
http://www.bom.gov.au/fwo/IDW60701/IDW60701.95647.axf

JavaScript Object Notation format (JSON) in row-major order
http://www.bom.gov.au/fwo/IDW60701/IDW60701.95647.json